createdAt,value
2023-04-03T05:38:49.330Z,2.70
2023-04-03T05:46:20.401Z,3.00
2023-04-03T05:48:48.883Z,3.00
2023-04-03T05:51:35.249Z,3.10
2023-04-03T05:54:11.021Z,3.10
2023-04-03T06:06:47.481Z,3.40
2023-04-03T06:09:16.323Z,3.60
2023-04-03T06:14:12.093Z,4.60
2023-04-03T06:19:10.200Z,3.90
2023-04-03T06:21:38.316Z,3.70
2023-04-03T06:24:06.888Z,3.90
2023-04-03T06:26:35.200Z,4.10
2023-04-03T06:31:31.294Z,4.30
2023-04-03T06:36:35.296Z,4.50
2023-04-03T06:39:04.003Z,4.30
2023-04-03T06:46:27.918Z,4.00
2023-04-03T06:51:27.834Z,4.20
2023-04-03T06:53:57.816Z,4.00
2023-04-03T06:56:26.344Z,3.90
2023-04-03T06:58:58.791Z,3.90
2023-04-03T07:01:28.948Z,3.90
2023-04-03T07:03:57.149Z,3.80
2023-04-03T07:16:19.452Z,3.80
2023-04-03T07:18:47.465Z,4.10
2023-04-03T07:23:43.567Z,4.30
2023-04-03T07:28:42.319Z,4.30
2023-04-03T07:31:14.741Z,4.20
2023-04-03T07:33:42.897Z,4.50
2023-04-03T07:36:12.816Z,5.20
2023-04-03T07:41:14.939Z,5.40
2023-04-03T07:43:43.376Z,6.30
2023-04-03T08:06:09.206Z,6.10
2023-04-03T08:13:38.262Z,6.10
2023-04-03T08:16:11.476Z,6.20
2023-04-03T08:18:44.046Z,5.90
2023-04-03T08:21:17.351Z,5.60
2023-04-03T08:26:18.290Z,5.50
2023-04-03T08:28:47.399Z,5.50
2023-04-03T08:31:20.021Z,5.40
2023-04-03T08:33:48.534Z,5.00
2023-04-03T08:36:29.401Z,5.10
2023-04-03T08:38:59.789Z,5.50
2023-04-03T08:41:43.623Z,5.50
2023-04-03T08:44:19.273Z,5.70
2023-04-03T08:47:05.555Z,6.50
2023-04-03T08:49:52.388Z,8.20
2023-04-03T08:52:27.116Z,9.10
2023-04-03T08:54:59.832Z,8.30
2023-04-03T08:57:41.310Z,7.20
2023-04-03T09:00:24.794Z,6.40
2023-04-03T09:02:54.793Z,4.60
2023-04-03T09:05:42.561Z,6.90
2023-04-03T09:08:34.400Z,6.70
2023-04-03T09:11:10.866Z,6.40
2023-04-03T09:14:04.175Z,6.10
2023-04-03T09:16:37.326Z,6.10
2023-04-03T09:19:26.205Z,6.50
2023-04-03T09:21:59.645Z,7.90
2023-04-03T09:24:27.683Z,9.70
2023-04-03T09:27:00.729Z,9.60
2023-04-03T09:32:11.014Z,7.50
2023-04-03T09:37:07.197Z,7.30
2023-04-03T09:39:51.659Z,7.20
2023-04-03T09:42:24.440Z,7.40
2023-04-03T09:44:58.733Z,7.90
2023-04-03T09:50:21.535Z,6.70
2023-04-03T09:52:52.644Z,6.50
2023-04-03T09:55:30.133Z,6.40
2023-04-03T09:58:01.030Z,7.10
2023-04-03T10:00:38.088Z,7.00
2023-04-03T10:03:06.938Z,7.00
2023-04-03T10:05:44.006Z,7.00
2023-04-03T10:08:24.517Z,7.00
2023-04-03T10:11:12.909Z,6.70
2023-04-03T10:14:01.227Z,6.60
2023-04-03T10:16:38.841Z,6.70
2023-04-03T10:19:43.211Z,6.70
2023-04-03T10:22:30.962Z,6.10
2023-04-03T10:25:21.735Z,5.90
2023-04-03T10:28:17.893Z,5.60
2023-04-03T10:33:33.347Z,5.80
2023-04-03T10:36:16.378Z,5.80
2023-04-03T10:38:52.150Z,6.10
2023-04-03T10:41:28.230Z,6.40
2023-04-03T10:44:23.891Z,6.60
2023-04-03T10:46:57.093Z,6.90
2023-04-03T10:52:18.328Z,6.90
2023-04-03T10:54:55.637Z,7.00
2023-04-03T10:57:25.989Z,6.80
2023-04-03T11:00:05.649Z,6.90
2023-04-03T11:02:38.372Z,6.90
2023-04-03T11:05:34.206Z,6.50
2023-04-03T11:08:22.766Z,6.40
2023-04-03T11:10:52.552Z,6.50
2023-04-03T11:13:26.252Z,6.30
2023-04-03T11:15:55.534Z,6.10
2023-04-03T11:18:34.737Z,6.10
2023-04-03T11:21:08.016Z,6.10
2023-04-03T11:23:49.438Z,6.00
2023-04-03T11:26:23.187Z,6.50
2023-04-03T11:28:59.887Z,5.90
2023-04-03T11:31:33.489Z,6.10
2023-04-03T11:34:26.591Z,6.40
2023-04-03T11:37:01.315Z,6.60
2023-04-03T11:39:34.820Z,6.70
2023-04-03T11:42:16.576Z,6.70
2023-04-03T11:44:44.993Z,6.80
2023-04-03T11:47:57.162Z,6.70
2023-04-03T11:50:45.767Z,7.10
2023-04-03T11:55:45.865Z,7.10
2023-04-03T11:58:18.989Z,6.70
2023-04-03T12:00:51.973Z,7.80
2023-04-03T12:03:28.172Z,6.90
2023-04-03T12:06:05.240Z,7.00
2023-04-03T12:08:45.574Z,6.70
2023-04-03T12:11:13.992Z,7.50
2023-04-03T12:13:53.468Z,7.90
2023-04-03T12:16:29.835Z,8.20
2023-04-03T12:19:06.178Z,8.20
2023-04-03T12:21:49.696Z,7.80
2023-04-03T12:24:18.198Z,7.60
2023-04-03T12:27:06.882Z,6.90
2023-04-03T12:29:43.917Z,6.70
2023-04-03T12:32:25.479Z,7.50
2023-04-03T12:35:07.828Z,6.30
2023-04-03T12:38:11.205Z,6.70
2023-04-03T12:40:59.862Z,6.30
2023-04-03T12:43:51.596Z,6.50
2023-04-03T12:46:22.057Z,6.70
2023-04-03T12:48:56.020Z,6.90
2023-04-03T12:51:43.140Z,6.90
2023-04-03T12:54:23.681Z,7.10
2023-04-03T12:56:51.884Z,6.70
2023-04-03T12:59:24.860Z,6.60
2023-04-03T13:01:58.508Z,6.60
2023-04-03T13:04:27.637Z,6.50
2023-04-03T13:09:28.830Z,6.60
2023-04-03T13:12:11.565Z,6.80
2023-04-03T13:14:39.682Z,7.00
2023-04-03T13:17:15.339Z,6.80
2023-04-03T13:19:45.100Z,6.90
2023-04-03T13:22:27.839Z,6.90
2023-04-03T13:24:56.466Z,6.60
2023-04-03T13:29:54.927Z,6.90
2023-04-03T13:32:25.617Z,7.20
2023-04-03T13:37:32.478Z,7.50
2023-04-03T13:40:08.708Z,7.40
2023-04-03T13:42:42.243Z,7.50
2023-04-03T13:47:42.910Z,7.50
2023-04-03T13:50:12.762Z,7.00
2023-04-03T13:53:03.342Z,7.10
2023-04-03T13:55:34.646Z,7.10
2023-04-03T13:58:23.767Z,7.00
2023-04-03T14:01:18.281Z,6.90
2023-04-03T14:04:14.768Z,6.70
2023-04-03T14:06:41.965Z,7.10
2023-04-03T14:11:37.087Z,6.60
2023-04-03T14:14:15.528Z,7.00
2023-04-03T14:16:46.193Z,7.30
2023-04-03T14:19:24.433Z,7.30
2023-04-03T14:24:22.091Z,7.20
2023-04-03T14:26:51.672Z,7.20
2023-04-03T14:29:20.346Z,7.30
2023-04-03T14:31:48.388Z,7.70
2023-04-03T14:36:45.567Z,7.00
2023-04-03T14:39:18.981Z,7.70
2023-04-03T14:46:56.178Z,6.60
2023-04-03T14:49:29.065Z,6.90
2023-04-03T14:51:58.339Z,7.10
2023-04-03T14:56:58.837Z,7.00
2023-04-03T14:59:26.637Z,6.70
2023-04-03T15:01:53.824Z,7.10
2023-04-03T15:04:21.975Z,6.90
2023-04-03T15:09:23.181Z,7.00
2023-04-03T15:11:51.832Z,7.20
2023-04-03T15:14:29.805Z,6.70
2023-04-03T15:19:38.712Z,7.00
2023-04-03T15:22:06.029Z,7.00
2023-04-03T15:24:33.260Z,6.70
2023-04-03T15:27:01.724Z,6.90
2023-04-03T15:31:56.739Z,7.10
2023-04-03T15:36:53.689Z,7.40
2023-04-03T15:39:21.892Z,7.90
2023-04-03T15:46:52.359Z,6.70
2023-04-03T15:49:21.804Z,6.40
2023-04-03T15:54:17.325Z,6.70
